createdAt,value
2022-08-07T00:01:43.196Z,0.80
2022-08-07T00:03:51.642Z,0.80
2022-08-07T00:06:20.465Z,0.50
2022-08-07T00:08:56.570Z,0.70
2022-08-07T00:11:29.908Z,0.55
2022-08-07T00:14:00.327Z,0.70
2022-08-07T00:16:29.006Z,0.70
2022-08-07T00:18:56.147Z,0.80
2022-08-07T00:21:56.540Z,0.65
2022-08-07T00:24:10.587Z,0.90
2022-08-07T00:26:58.488Z,0.70
2022-08-07T00:29:28.713Z,0.80
2022-08-07T00:31:59.701Z,0.60
2022-08-07T00:34:27.427Z,0.60
2022-08-07T00:36:56.772Z,0.70
2022-08-07T00:39:24.045Z,1.00
2022-08-07T00:42:01.685Z,0.70
2022-08-07T00:44:29.856Z,0.73
2022-08-07T00:46:57.087Z,0.80
2022-08-07T00:50:19.249Z,0.80
2022-08-07T00:52:13.843Z,0.77
2022-08-07T00:54:44.977Z,0.90
2022-08-07T00:57:13.424Z,0.80
2022-08-07T00:59:41.919Z,0.80
2022-08-07T01:02:14.130Z,0.90
2022-08-07T01:04:58.417Z,0.93
2022-08-07T01:07:27.596Z,0.88
2022-08-07T01:10:05.060Z,0.90
2022-08-07T01:12:36.433Z,0.90
2022-08-07T01:15:05.935Z,0.77
2022-08-07T01:17:33.433Z,0.90
2022-08-07T01:20:17.021Z,0.70
2022-08-07T01:22:46.927Z,0.90
2022-08-07T01:25:40.268Z,0.93
2022-08-07T01:28:15.590Z,0.68
2022-08-07T01:30:43.127Z,1.10
2022-08-07T01:33:12.110Z,0.80
2022-08-07T01:35:54.326Z,0.90
2022-08-07T01:38:29.174Z,0.70
2022-08-07T01:41:00.589Z,0.80
2022-08-07T01:43:38.187Z,0.80
2022-08-07T01:46:06.076Z,0.70
2022-08-07T01:48:40.979Z,1.00
2022-08-07T01:52:02.260Z,1.00
2022-08-07T01:54:12.341Z,1.00
2022-08-07T01:57:03.330Z,0.90
2022-08-07T01:59:33.533Z,0.80
2022-08-07T02:02:04.235Z,0.90
2022-08-07T02:04:36.889Z,0.77
2022-08-07T02:07:04.864Z,1.02
2022-08-07T02:09:52.140Z,0.70
2022-08-07T02:12:29.031Z,1.00
2022-08-07T02:14:59.303Z,0.88
2022-08-07T02:17:31.597Z,1.00
2022-08-07T02:20:04.629Z,0.90
2022-08-07T02:22:38.290Z,0.90
2022-08-07T02:25:13.813Z,0.80
2022-08-07T02:27:52.167Z,0.75
2022-08-07T02:30:20.265Z,0.95
2022-08-07T02:33:01.057Z,0.82
2022-08-07T02:36:30.361Z,0.75
2022-08-07T02:38:28.250Z,1.00
2022-08-07T02:40:59.700Z,1.13
2022-08-07T02:43:28.275Z,0.80
2022-08-07T02:46:01.956Z,0.88
2022-08-07T02:48:30.785Z,1.15
2022-08-07T02:51:00.393Z,1.02
2022-08-07T02:53:34.037Z,1.10
2022-08-07T02:56:12.875Z,0.90
2022-08-07T02:58:46.964Z,0.85
2022-08-07T03:01:18.772Z,0.90
2022-08-07T03:03:49.930Z,1.10
2022-08-07T03:06:25.900Z,1.25
2022-08-07T03:09:00.584Z,1.30
2022-08-07T03:11:28.374Z,1.23
2022-08-07T03:13:57.488Z,1.10
2022-08-07T03:16:28.972Z,1.10
2022-08-07T03:18:58.069Z,1.00
2022-08-07T03:21:25.611Z,1.60
2022-08-07T03:24:20.158Z,1.45
2022-08-07T03:26:57.771Z,1.50
2022-08-07T03:31:53.442Z,1.45
2022-08-07T03:34:22.161Z,1.67
2022-08-07T03:36:51.432Z,1.98
2022-08-07T03:39:42.019Z,1.95
2022-08-07T03:42:08.447Z,1.80
2022-08-07T03:44:36.907Z,2.30
2022-08-07T03:47:14.128Z,2.40
2022-08-07T03:49:52.008Z,2.20
2022-08-07T03:52:26.695Z,2.45
2022-08-07T03:55:06.565Z,2.55
2022-08-07T03:58:32.940Z,2.50
2022-08-07T04:00:29.262Z,2.50
2022-08-07T04:02:59.067Z,2.63
2022-08-07T04:05:39.492Z,2.55
2022-08-07T04:08:10.254Z,2.70
2022-08-07T04:10:38.796Z,2.60
2022-08-07T04:13:07.650Z,2.70
2022-08-07T04:15:43.323Z,2.60
2022-08-07T04:18:56.560Z,2.55
2022-08-07T04:21:01.476Z,2.95
2022-08-07T04:23:43.265Z,2.85
2022-08-07T04:26:21.797Z,2.20
2022-08-07T04:28:49.139Z,2.70
2022-08-07T04:31:20.150Z,2.72
2022-08-07T04:34:05.083Z,2.50
2022-08-07T04:36:45.384Z,2.58
2022-08-07T04:39:17.658Z,2.50
2022-08-07T04:41:50.222Z,2.67
2022-08-07T04:44:18.906Z,2.60
2022-08-07T04:47:04.370Z,2.92
2022-08-07T04:49:57.703Z,2.90
2022-08-07T04:52:36.772Z,3.30
2022-08-07T04:55:15.210Z,3.13
2022-08-07T04:58:16.042Z,3.50
2022-08-07T05:00:52.985Z,3.28
2022-08-07T05:03:59.993Z,3.25
2022-08-07T05:06:21.964Z,3.60
2022-08-07T05:09:02.596Z,3.53
2022-08-07T05:11:58.130Z,3.50
2022-08-07T05:14:56.077Z,3.75
2022-08-07T05:17:11.938Z,3.95
2022-08-07T05:19:45.217Z,3.72
2022-08-07T05:22:13.675Z,4.53
2022-08-07T05:24:57.108Z,3.88
2022-08-07T05:30:16.632Z,4.18
2022-08-07T05:32:57.863Z,4.30
2022-08-07T05:35:33.879Z,3.78
2022-08-07T05:38:09.783Z,4.15
2022-08-07T05:40:50.546Z,4.85
2022-08-07T05:43:19.337Z,4.30
2022-08-07T05:46:06.758Z,4.20
2022-08-07T05:48:34.115Z,4.60
2022-08-07T05:51:02.138Z,4.55
2022-08-07T05:54:12.940Z,4.38
2022-08-07T05:56:19.190Z,4.00
2022-08-07T05:58:52.869Z,4.07
2022-08-07T06:01:20.791Z,3.55
2022-08-07T06:03:56.953Z,4.05
2022-08-07T06:06:31.317Z,3.40
2022-08-07T06:09:04.336Z,3.45
2022-08-07T06:11:33.219Z,3.63
2022-08-07T06:14:12.924Z,3.50
2022-08-07T06:16:50.310Z,3.47
2022-08-07T06:19:57.721Z,2.72
2022-08-07T06:22:14.392Z,2.75
2022-08-07T06:24:58.500Z,2.50
2022-08-07T06:28:00.545Z,2.35
2022-08-07T06:30:32.208Z,2.65
2022-08-07T06:33:03.781Z,2.28
2022-08-07T06:35:45.569Z,2.10
2022-08-07T06:38:20.756Z,1.63
2022-08-07T06:40:50.519Z,1.95
2022-08-07T06:43:21.262Z,1.70
2022-08-07T06:45:49.596Z,1.57
2022-08-07T06:48:24.737Z,1.40
2022-08-07T06:50:53.582Z,1.73
2022-08-07T06:54:11.814Z,1.48
2022-08-07T06:56:15.535Z,1.30
2022-08-07T07:00:12.288Z,1.38
2022-08-07T07:01:33.297Z,1.23
2022-08-07T07:04:28.529Z,1.17
2022-08-07T07:07:00.169Z,1.20
2022-08-07T07:09:31.391Z,1.25
2022-08-07T07:12:08.240Z,1.27
2022-08-07T07:14:56.874Z,1.20
2022-08-07T07:17:39.028Z,1.55
2022-08-07T07:20:12.673Z,1.35
2022-08-07T07:24:10.799Z,1.35
2022-08-07T07:26:35.320Z,1.00
2022-08-07T07:28:42.358Z,1.10
2022-08-07T07:31:21.638Z,1.20
2022-08-07T07:33:56.394Z,1.10
2022-08-07T07:36:25.032Z,1.00
2022-08-07T07:39:01.084Z,1.05
2022-08-07T07:41:50.393Z,1.08
2022-08-07T07:44:25.847Z,1.00
2022-08-07T07:47:04.263Z,1.20
2022-08-07T07:50:33.101Z,0.90
2022-08-07T07:52:31.068Z,0.98
2022-08-07T07:54:58.985Z,1.20
2022-08-07T07:57:43.934Z,0.90
2022-08-07T08:00:15.052Z,0.85
2022-08-07T08:03:01.186Z,0.65
2022-08-07T08:05:50.547Z,1.02
2022-08-07T08:08:35.185Z,1.05
2022-08-07T08:11:08.056Z,0.90
2022-08-07T08:13:53.039Z,0.85
2022-08-07T08:16:25.315Z,0.90
2022-08-07T08:18:55.038Z,0.70
2022-08-07T08:21:55.849Z,0.80
2022-08-07T08:24:54.840Z,0.90
2022-08-07T08:27:33.645Z,0.80
2022-08-07T08:30:04.742Z,1.05
2022-08-07T08:32:38.509Z,0.80
2022-08-07T08:35:08.019Z,0.75
2022-08-07T08:37:59.272Z,0.85
2022-08-07T08:40:28.563Z,0.85
2022-08-07T08:42:59.502Z,0.73
2022-08-07T08:45:41.917Z,0.70
2022-08-07T08:48:38.293Z,0.60
2022-08-07T08:51:29.600Z,0.63
2022-08-07T08:54:06.699Z,0.80
2022-08-07T08:56:37.256Z,0.63
2022-08-07T08:59:41.773Z,0.52
2022-08-07T09:02:34.993Z,0.65
2022-08-07T09:05:07.573Z,0.60
2022-08-07T09:07:46.372Z,0.52
2022-08-07T09:10:26.135Z,0.80
2022-08-07T09:12:54.262Z,0.80
2022-08-07T09:16:21.840Z,0.70
2022-08-07T09:18:53.421Z,0.60
2022-08-07T09:21:33.775Z,0.88
2022-08-07T09:24:30.927Z,0.77
2022-08-07T09:27:14.040Z,0.65
2022-08-07T09:30:04.095Z,0.77
2022-08-07T09:32:44.621Z,0.60
2022-08-07T09:36:05.296Z,0.80
2022-08-07T09:38:14.022Z,0.75
2022-08-07T09:40:44.488Z,0.52
2022-08-07T09:43:18.642Z,0.82
2022-08-07T09:47:24.707Z,0.60
2022-08-07T09:48:56.059Z,1.05
2022-08-07T09:52:15.670Z,0.70
2022-08-07T09:54:40.170Z,0.70
2022-08-07T09:57:13.719Z,0.90
2022-08-07T10:00:01.479Z,0.90
2022-08-07T10:02:55.350Z,0.63
2022-08-07T10:05:59.240Z,0.60
2022-08-07T10:08:44.232Z,0.80
2022-08-07T10:12:01.395Z,0.70
2022-08-07T10:14:31.134Z,0.88
2022-08-07T10:17:17.501Z,0.70
2022-08-07T10:19:55.951Z,0.60
2022-08-07T10:22:33.532Z,0.60
2022-08-07T10:25:01.198Z,0.77
2022-08-07T10:27:30.187Z,0.68
2022-08-07T10:30:16.412Z,0.77
2022-08-07T10:33:02.044Z,0.68
2022-08-07T10:35:53.508Z,0.90
2022-08-07T10:38:35.860Z,0.90
2022-08-07T10:41:46.937Z,0.70
2022-08-07T10:44:28.351Z,1.52
2022-08-07T10:47:27.136Z,0.80
2022-08-07T10:50:09.370Z,0.60
2022-08-07T10:53:00.166Z,0.80
2022-08-07T10:55:42.391Z,0.82
2022-08-07T10:58:32.121Z,0.60
2022-08-07T11:01:15.674Z,0.57
2022-08-07T11:04:16.561Z,0.70
2022-08-07T11:07:03.251Z,0.70
2022-08-07T11:10:10.093Z,0.70
2022-08-07T11:12:40.905Z,0.80
2022-08-07T11:15:17.266Z,0.80
2022-08-07T11:17:53.914Z,0.75
2022-08-07T11:20:22.548Z,0.68
2022-08-07T11:23:10.491Z,0.70
2022-08-07T11:25:50.034Z,0.60
2022-08-07T11:28:17.752Z,0.60
2022-08-07T11:31:03.368Z,0.80
2022-08-07T11:33:58.575Z,0.60
2022-08-07T11:36:36.477Z,0.60
2022-08-07T11:39:04.442Z,0.80
2022-08-07T11:42:01.824Z,0.80
2022-08-07T11:44:33.294Z,0.60
2022-08-07T11:47:13.825Z,0.75
2022-08-07T11:50:31.653Z,1.10
2022-08-07T11:53:08.027Z,0.90
2022-08-07T11:56:25.528Z,0.70
2022-08-07T11:58:59.507Z,0.70
2022-08-07T12:01:59.927Z,0.52
2022-08-07T12:04:37.374Z,0.57
2022-08-07T12:07:27.902Z,0.50
2022-08-07T12:10:18.491Z,0.50
2022-08-07T12:12:53.947Z,0.95
2022-08-07T12:15:35.924Z,0.70
2022-08-07T12:18:30.560Z,0.60
2022-08-07T12:21:06.674Z,0.60
2022-08-07T12:24:38.401Z,0.63
2022-08-07T12:26:58.709Z,0.77
2022-08-07T12:29:38.272Z,0.65
2022-08-07T12:32:20.175Z,0.90
2022-08-07T12:34:53.485Z,0.90
2022-08-07T12:37:28.610Z,0.88
2022-08-07T12:40:36.259Z,0.73
2022-08-07T12:43:02.948Z,1.00
2022-08-07T12:45:52.723Z,0.85
2022-08-07T12:48:27.666Z,0.80
2022-08-07T12:51:21.855Z,0.50
2022-08-07T12:54:36.308Z,0.70
2022-08-07T12:56:39.475Z,0.77
2022-08-07T12:59:08.312Z,0.70
2022-08-07T13:01:41.635Z,0.82
2022-08-07T13:04:18.943Z,0.70
2022-08-07T13:07:02.708Z,0.70
2022-08-07T13:10:21.574Z,0.65
2022-08-07T13:12:40.934Z,0.80
2022-08-07T13:15:29.837Z,0.80
2022-08-07T13:18:26.064Z,0.70
2022-08-07T13:20:59.741Z,0.70
2022-08-07T13:24:01.503Z,0.80
2022-08-07T13:26:49.937Z,0.80
2022-08-07T13:29:35.902Z,0.50
2022-08-07T13:32:32.724Z,0.90
2022-08-07T13:35:08.894Z,0.80
2022-08-07T13:37:59.015Z,0.88
2022-08-07T13:40:36.339Z,0.75
2022-08-07T13:43:12.320Z,0.70
2022-08-07T13:46:11.378Z,1.00
2022-08-07T13:48:34.266Z,0.82
2022-08-07T13:51:20.477Z,0.93
2022-08-07T13:54:16.483Z,0.77
2022-08-07T13:56:52.074Z,1.00
2022-08-07T13:59:25.782Z,0.80
2022-08-07T14:02:04.464Z,0.77
2022-08-07T14:04:36.266Z,0.70
2022-08-07T14:07:09.786Z,1.00
2022-08-07T14:10:12.656Z,1.00
2022-08-07T14:12:31.517Z,1.10
2022-08-07T14:15:05.493Z,0.88
2022-08-07T14:18:23.969Z,0.93
2022-08-07T14:20:42.943Z,0.80
2022-08-07T14:23:31.182Z,0.80
2022-08-07T14:26:28.071Z,0.90
2022-08-07T14:29:02.961Z,1.02
2022-08-07T14:31:42.900Z,1.00
2022-08-07T14:34:25.793Z,1.20
2022-08-07T14:36:56.665Z,1.00
2022-08-07T14:40:15.935Z,0.95
2022-08-07T14:42:18.505Z,1.00
2022-08-07T14:44:52.991Z,0.88
2022-08-07T14:47:23.143Z,0.90
2022-08-07T14:49:56.885Z,0.70
2022-08-07T14:52:41.405Z,1.23
2022-08-07T14:55:10.780Z,0.90
2022-08-07T15:00:35.592Z,1.00
2022-08-07T15:03:18.965Z,0.95
2022-08-07T15:05:54.756Z,1.00
2022-08-07T15:08:34.466Z,0.90
2022-08-07T15:11:10.626Z,0.90
2022-08-07T15:13:47.930Z,1.05
2022-08-07T15:16:20.159Z,0.82
2022-08-07T15:19:02.122Z,1.05
2022-08-07T15:21:58.697Z,0.80
2022-08-07T15:25:13.025Z,0.70
2022-08-07T15:27:15.596Z,0.80
2022-08-07T15:30:09.919Z,0.90
2022-08-07T15:32:39.412Z,0.90
2022-08-07T15:35:07.999Z,0.88
2022-08-07T15:38:18.158Z,0.88
2022-08-07T15:40:33.840Z,0.93
2022-08-07T15:43:53.781Z,0.93
2022-08-07T15:46:31.742Z,1.02
2022-08-07T15:54:25.077Z,0.80
2022-08-07T15:56:57.222Z,1.00
2022-08-07T15:59:39.635Z,0.88
2022-08-07T16:02:15.040Z,0.80
2022-08-07T16:04:44.142Z,0.90
2022-08-07T16:08:32.499Z,0.90
2022-08-07T16:10:06.011Z,1.00
2022-08-07T16:13:00.907Z,1.00
2022-08-07T16:15:55.578Z,1.05
2022-08-07T16:18:49.584Z,0.70
2022-08-07T16:22:01.771Z,0.80
2022-08-07T16:24:40.675Z,0.80
2022-08-07T16:27:25.125Z,0.82
2022-08-07T16:30:10.182Z,0.90
2022-08-07T16:32:46.393Z,0.77
2022-08-07T16:35:32.598Z,1.02
2022-08-07T16:38:11.482Z,0.90
2022-08-07T16:41:02.111Z,0.73
2022-08-07T16:44:02.413Z,1.90
2022-08-07T16:47:05.611Z,0.80
2022-08-07T16:50:26.726Z,0.95
2022-08-07T16:52:52.140Z,3.63
2022-08-07T16:55:47.169Z,1.38
2022-08-07T16:58:48.162Z,4.82
2022-08-07T17:01:41.149Z,3.42
2022-08-07T17:04:26.782Z,1.58
2022-08-07T17:07:03.237Z,1.63
2022-08-07T17:10:07.791Z,1.05
2022-08-07T17:12:44.421Z,5.85
2022-08-07T17:15:15.575Z,3.72
2022-08-07T17:17:49.066Z,3.17
2022-08-07T17:20:32.883Z,1.10
2022-08-07T17:23:15.579Z,1.00
2022-08-07T17:25:53.249Z,0.80
2022-08-07T17:28:31.093Z,0.80
2022-08-07T17:31:18.921Z,0.80
2022-08-07T17:34:17.969Z,1.00
2022-08-07T17:36:57.463Z,1.00
2022-08-07T17:39:57.846Z,1.00
2022-08-07T17:42:30.264Z,0.70
2022-08-07T17:44:59.226Z,0.90
2022-08-07T17:47:42.259Z,0.70
2022-08-07T17:50:19.566Z,0.88
2022-08-07T17:52:49.994Z,0.60
2022-08-07T17:55:55.765Z,0.70
2022-08-07T17:58:30.013Z,0.60
2022-08-07T18:00:59.881Z,0.77
2022-08-07T18:04:04.314Z,0.80
2022-08-07T18:06:38.485Z,0.93
2022-08-07T18:09:08.654Z,0.80
2022-08-07T18:12:06.570Z,0.88
2022-08-07T18:14:26.165Z,0.90
2022-08-07T18:18:45.958Z,0.70
2022-08-07T18:21:06.523Z,0.90
2022-08-07T18:23:05.939Z,0.73
2022-08-07T18:26:00.972Z,1.00
2022-08-07T18:28:36.261Z,0.80
2022-08-07T18:34:39.219Z,0.77
2022-08-07T18:37:09.586Z,0.77
2022-08-07T18:40:06.629Z,0.68
2022-08-07T18:42:37.420Z,0.90
2022-08-07T18:45:43.881Z,0.80
2022-08-07T18:48:00.683Z,1.00
2022-08-07T18:50:47.575Z,0.70
2022-08-07T18:53:39.481Z,0.60
2022-08-07T18:56:10.054Z,0.88
2022-08-07T19:02:17.157Z,0.80
2022-08-07T19:04:00.526Z,0.70
2022-08-07T19:06:41.193Z,1.00
2022-08-07T19:09:55.824Z,0.70
2022-08-07T19:14:55.254Z,0.68
2022-08-07T19:17:26.584Z,0.90
2022-08-07T19:20:30.208Z,0.90
2022-08-07T19:23:03.197Z,0.77
2022-08-07T19:26:22.682Z,1.00
2022-08-07T19:30:56.495Z,0.90
2022-08-07T19:31:58.526Z,0.90
2022-08-07T19:34:33.980Z,0.80
2022-08-07T19:37:09.855Z,0.90
2022-08-07T19:39:57.810Z,0.80
2022-08-07T19:42:31.356Z,0.73
2022-08-07T19:45:08.239Z,0.75
2022-08-07T19:47:37.901Z,0.90
2022-08-07T19:50:43.900Z,0.70
2022-08-07T19:52:59.066Z,0.80
2022-08-07T19:55:56.493Z,0.95
2022-08-07T19:58:15.545Z,0.90
2022-08-07T20:00:54.240Z,0.98
2022-08-07T20:03:34.911Z,1.00
2022-08-07T20:06:04.545Z,1.13
2022-08-07T20:08:36.647Z,0.88
2022-08-07T20:11:10.785Z,1.10
2022-08-07T20:13:51.119Z,1.05
2022-08-07T20:16:35.093Z,1.48
2022-08-07T20:19:05.275Z,1.20
2022-08-07T20:21:42.223Z,1.15
2022-08-07T20:24:34.935Z,1.08
2022-08-07T20:27:07.501Z,1.10
2022-08-07T20:29:47.900Z,1.08
2022-08-07T20:32:22.832Z,1.02
2022-08-07T20:34:54.493Z,1.00
2022-08-07T20:37:23.729Z,1.10
2022-08-07T20:40:03.655Z,1.10
2022-08-07T20:42:33.260Z,1.73
2022-08-07T20:45:01.278Z,0.98
2022-08-07T20:47:56.740Z,1.30
2022-08-07T20:50:21.075Z,1.13
2022-08-07T20:52:51.181Z,1.15
2022-08-07T20:55:23.954Z,0.90
2022-08-07T20:58:03.554Z,1.00
2022-08-07T21:00:42.964Z,1.52
2022-08-07T21:03:12.668Z,1.17
2022-08-07T21:05:54.435Z,1.08
2022-08-07T21:08:38.189Z,1.05
2022-08-07T21:11:10.905Z,1.00
2022-08-07T21:13:44.031Z,0.70
2022-08-07T21:16:29.291Z,0.95
2022-08-07T21:18:58.222Z,1.10
2022-08-07T21:21:27.732Z,1.00
2022-08-07T21:24:15.319Z,1.00
2022-08-07T21:26:51.873Z,0.80
2022-08-07T21:29:22.150Z,0.70
2022-08-07T21:32:48.089Z,0.93
2022-08-07T21:35:08.112Z,0.90
2022-08-07T21:37:57.952Z,1.05
2022-08-07T21:40:38.257Z,1.00
2022-08-07T21:43:10.738Z,1.20
2022-08-07T21:46:08.017Z,0.93
2022-08-07T21:48:57.063Z,0.95
2022-08-07T21:51:34.338Z,1.00
2022-08-07T21:54:34.297Z,0.90
2022-08-07T21:57:01.399Z,0.88
2022-08-07T22:00:02.781Z,0.80
2022-08-07T22:02:38.007Z,0.82
2022-08-07T22:05:12.327Z,0.98
2022-08-07T22:07:58.754Z,1.15
2022-08-07T22:10:29.523Z,0.80
2022-08-07T22:13:02.928Z,1.00
2022-08-07T22:16:43.509Z,0.90
2022-08-07T22:18:31.078Z,1.00
2022-08-07T22:21:02.428Z,0.88
2022-08-07T22:23:45.079Z,0.80
2022-08-07T22:26:21.407Z,1.00
2022-08-07T22:29:08.799Z,0.98
2022-08-07T22:31:56.213Z,1.00
2022-08-07T22:34:35.852Z,0.90
2022-08-07T22:37:12.716Z,0.80
2022-08-07T22:39:54.913Z,0.80
2022-08-07T22:42:25.851Z,1.10
2022-08-07T22:44:59.025Z,0.77
2022-08-07T22:47:32.438Z,0.88
2022-08-07T22:49:59.927Z,0.75
2022-08-07T22:52:46.209Z,0.88
2022-08-07T22:55:32.021Z,0.90
2022-08-07T22:58:07.373Z,0.88
2022-08-07T23:00:43.751Z,0.80
2022-08-07T23:03:12.805Z,0.90
2022-08-07T23:06:08.828Z,1.08
2022-08-07T23:08:46.751Z,0.90
2022-08-07T23:11:16.858Z,0.82
2022-08-07T23:13:48.665Z,0.93
2022-08-07T23:16:46.769Z,0.95
2022-08-07T23:19:51.219Z,0.85
2022-08-07T23:22:37.690Z,0.70
2022-08-07T23:25:28.648Z,1.00
2022-08-07T23:28:22.499Z,0.90
2022-08-07T23:31:07.111Z,0.80
2022-08-07T23:34:34.605Z,0.90
2022-08-07T23:36:54.707Z,0.90
2022-08-07T23:39:47.440Z,0.90
2022-08-07T23:42:41.299Z,0.90
2022-08-07T23:46:01.473Z,0.90
2022-08-07T23:48:29.638Z,1.10
2022-08-07T23:52:57.068Z,1.15
2022-08-07T23:54:06.938Z,1.10
2022-08-07T23:56:54.437Z,0.82
